Time,TemperatureF,DewpointF,PressureIn,WindDirection,WindDirectionDegrees,WindSpeedMPH,WindSpeedGustMPH,Humidity,HourlyPrecipIn,Conditions,Clouds,dailyrainin,SoftwareType,DateUTC
2013-01-12 00:00:00,49.6,47.1,31.02,WSW,245,0.0,3.0,91,0.00,,,0.00,meteohub,2013-01-12 05:00:00,
2013-01-12 00:03:00,49.6,47.5,31.02,WSW,240,0.0,3.0,92,0.00,,,0.00,meteohub,2013-01-12 05:03:00,
2013-01-12 00:08:00,49.6,47.5,31.02,North,353,0.0,3.0,92,0.00,,,0.00,meteohub,2013-01-12 05:08:00,
2013-01-12 00:13:00,49.6,47.5,31.02,NNW,348,0.0,3.0,92,0.00,,,0.00,meteohub,2013-01-12 05:13:00,
2013-01-12 00:18:00,49.5,47.3,31.02,North,357,4.0,0.0,92,0.00,,,0.00,meteohub,2013-01-12 05:18:00,
2013-01-12 00:23:00,49.5,47.3,31.02,ENE,70,0.0,4.0,92,0.00,,,0.00,meteohub,2013-01-12 05:23:00,
2013-01-12 00:28:00,49.5,47.3,31.02,ENE,70,0.0,4.0,92,0.00,,,0.00,meteohub,2013-01-12 05:28:00,
2013-01-12 00:33:00,49.5,47.3,31.02,NNW,332,0.0,4.0,92,0.00,,,0.00,meteohub,2013-01-12 05:33:00,
2013-01-12 00:38:00,49.5,47.3,31.02,NNW,344,0.0,0.0,92,0.00,,,0.00,meteohub,2013-01-12 05:38:00,
2013-01-12 00:44:00,49.5,47.3,31.02,SSE,157,0.0,0.0,92,0.00,,,0.00,meteohub,2013-01-12 05:44:00,
2013-01-12 00:49:00,49.5,47.3,31.02,West,264,2.0,0.0,92,0.00,,,0.00,meteohub,2013-01-12 05:49:00,
2013-01-12 00:54:00,49.5,47.3,31.02,WSW,243,0.0,0.0,92,0.00,,,0.00,meteohub,2013-01-12 05:54:00,
2013-01-12 00:59:00,49.5,47.3,31.02,NNE,22,0.0,3.0,92,0.00,,,0.00,meteohub,2013-01-12 05:59:00,
2013-01-12 01:04:00,49.3,47.1,31.02,NE,37,0.0,3.0,92,0.00,,,0.00,meteohub,2013-01-12 06:04:00,
2013-01-12 01:09:00,49.3,47.1,31.02,WSW,257,0.0,3.0,92,0.00,,,0.00,meteohub,2013-01-12 06:09:00,
2013-01-12 01:14:00,49.3,47.3,31.02,SSW,209,0.0,3.0,93,0.00,,,0.00,meteohub,2013-01-12 06:14:00,
2013-01-12 01:19:00,49.3,47.3,31.02,SW,233,3.0,3.0,93,0.00,,,0.00,meteohub,2013-01-12 06:19:00,
2013-01-12 01:24:00,49.3,47.3,31.02,WSW,247,0.0,3.0,93,0.00,,,0.00,meteohub,2013-01-12 06:24:00,
2013-01-12 01:29:00,49.3,47.3,31.02,NNW,339,0.0,3.0,93,0.00,,,0.00,meteohub,2013-01-12 06:29:00,
2013-01-12 01:34:00,49.3,47.7,31.02,North,3,0.0,4.0,94,0.00,,,0.00,meteohub,2013-01-12 06:34:00,
2013-01-12 01:39:00,49.3,47.7,31.02,NNW,339,0.0,4.0,94,0.00,,,0.00,meteohub,2013-01-12 06:39:00,
2013-01-12 01:45:00,49.3,47.7,31.02,North,357,0.0,4.0,94,0.00,,,0.00,meteohub,2013-01-12 06:45:00,
2013-01-12 01:50:00,49.3,47.7,31.02,NNE,24,0.0,3.0,94,0.00,,,0.00,meteohub,2013-01-12 06:50:00,
2013-01-12 01:55:00,49.3,47.7,31.02,NNW,343,0.0,3.0,94,0.00,,,0.00,meteohub,2013-01-12 06:55:00,
2013-01-12 02:00:00,49.3,47.7,31.02,North,353,0.0,3.0,94,0.00,,,0.00,meteohub,2013-01-12 07:00:00,
2013-01-12 02:05:00,49.3,47.7,31.02,WNW,292,0.0,3.0,94,0.00,,,0.00,meteohub,2013-01-12 07:05:00,
2013-01-12 02:10:00,49.3,47.7,31.02,WNW,292,0.0,0.0,94,0.00,,,0.00,meteohub,2013-01-12 07:10:00,
2013-01-12 02:15:00,49.3,47.7,31.02,WNW,292,0.0,0.0,94,0.00,,,0.00,meteohub,2013-01-12 07:15:00,
2013-01-12 02:20:00,49.3,47.7,31.02,WNW,292,0.0,0.0,94,0.00,,,0.00,meteohub,2013-01-12 07:20:00,
2013-01-12 02:25:00,49.3,47.7,31.02,WNW,292,0.0,0.0,94,0.00,,,0.00,meteohub,2013-01-12 07:25:00,
2013-01-12 02:30:00,49.3,47.7,31.02,WNW,292,0.0,0.0,94,0.00,,,0.00,meteohub,2013-01-12 07:30:00,
2013-01-12 02:36:00,49.3,47.7,31.02,WNW,292,0.0,0.0,94,0.00,,,0.00,meteohub,2013-01-12 07:36:00,
2013-01-12 02:41:00,49.3,47.7,31.02,WNW,292,0.0,0.0,94,0.00,,,0.00,meteohub,2013-01-12 07:41:00,
2013-01-12 02:46:00,49.3,47.7,31.02,WNW,292,0.0,0.0,94,0.00,,,0.00,meteohub,2013-01-12 07:46:00,
2013-01-12 02:51:00,49.3,47.7,31.02,WNW,292,0.0,0.0,94,0.00,,,0.00,meteohub,2013-01-12 07:51:00,
2013-01-12 02:56:00,49.3,47.7,31.02,WNW,292,0.0,0.0,94,0.00,,,0.00,meteohub,2013-01-12 07:56:00,
2013-01-12 03:01:00,49.3,47.7,31.02,WNW,292,0.0,0.0,94,0.00,,,0.00,meteohub,2013-01-12 08:01:00,
2013-01-12 03:06:00,49.3,47.7,31.02,WNW,292,0.0,0.0,94,0.00,,,0.00,meteohub,2013-01-12 08:06:00,
2013-01-12 03:11:00,49.3,47.7,31.02,WNW,291,0.0,0.0,94,0.00,,,0.00,meteohub,2013-01-12 08:11:00,
2013-01-12 03:16:00,49.3,47.7,31.02,WNW,291,0.0,0.0,94,0.00,,,0.00,meteohub,2013-01-12 08:16:00,
2013-01-12 03:21:00,49.3,47.7,31.02,SW,224,0.0,0.0,94,0.00,,,0.00,meteohub,2013-01-12 08:21:00,
2013-01-12 03:26:00,49.5,47.8,31.02,SW,224,0.0,0.0,94,0.00,,,0.00,meteohub,2013-01-12 08:26:00,
2013-01-12 03:31:00,49.5,47.8,31.02,WSW,239,0.0,0.0,94,0.00,,,0.00,meteohub,2013-01-12 08:31:00,
2013-01-12 03:36:00,49.6,48.0,31.02,WSW,240,0.0,0.0,94,0.00,,,0.00,meteohub,2013-01-12 08:36:00,
2013-01-12 03:41:00,49.8,48.4,31.02,WSW,240,0.0,0.0,95,0.00,,,0.00,meteohub,2013-01-12 08:41:00,
2013-01-12 03:47:00,49.8,48.2,31.02,SW,231,0.0,3.0,94,0.00,,,0.00,meteohub,2013-01-12 08:47:00,
2013-01-12 03:52:00,49.8,48.2,31.02,SW,231,0.0,3.0,94,0.00,,,0.00,meteohub,2013-01-12 08:52:00,
2013-01-12 03:57:00,49.8,48.2,31.02,SW,231,0.0,3.0,94,0.00,,,0.00,meteohub,2013-01-12 08:57:00,
2013-01-12 04:02:00,49.8,48.2,31.02,SW,231,0.0,0.0,94,0.00,,,0.00,meteohub,2013-01-12 09:02:00,
2013-01-12 04:07:00,49.8,48.2,31.02,SW,231,0.0,0.0,94,0.00,,,0.00,meteohub,2013-01-12 09:07:00,
2013-01-12 04:12:00,49.8,48.2,31.02,SW,231,0.0,0.0,94,0.00,,,0.00,meteohub,2013-01-12 09:12:00,
2013-01-12 04:17:00,49.8,48.2,31.02,SW,231,0.0,0.0,94,0.00,,,0.00,meteohub,2013-01-12 09:17:00,
2013-01-12 04:22:00,49.8,48.2,31.02,SW,231,0.0,0.0,94,0.00,,,0.00,meteohub,2013-01-12 09:22:00,
2013-01-12 04:27:00,49.8,48.2,31.02,SW,214,0.0,0.0,94,0.00,,,0.00,meteohub,2013-01-12 09:27:00,
2013-01-12 04:32:00,49.8,48.2,31.02,SW,214,0.0,0.0,94,0.00,,,0.00,meteohub,2013-01-12 09:32:00,
2013-01-12 04:37:00,49.8,48.2,31.02,SW,214,0.0,0.0,94,0.00,,,0.00,meteohub,2013-01-12 09:37:00,
2013-01-12 04:42:00,50.0,48.4,31.02,SW,214,0.0,0.0,94,0.00,,,0.00,meteohub,2013-01-12 09:42:00,
2013-01-12 04:47:00,50.0,48.4,31.02,SW,223,0.0,0.0,94,0.00,,,0.00,meteohub,2013-01-12 09:47:00,
2013-01-12 04:52:00,50.0,48.4,31.02,SW,223,0.0,0.0,94,0.00,,,0.00,meteohub,2013-01-12 09:52:00,
2013-01-12 04:57:00,50.2,48.6,31.02,SW,223,0.0,0.0,94,0.00,,,0.00,meteohub,2013-01-12 09:57:00,
2013-01-12 05:02:00,50.2,48.6,31.02,SW,223,0.0,0.0,94,0.00,,,0.00,meteohub,2013-01-12 10:02:00,
2013-01-12 05:07:00,50.2,48.6,31.02,SW,223,0.0,0.0,94,0.00,,,0.00,meteohub,2013-01-12 10:07:00,
2013-01-12 05:12:00,50.2,48.6,31.02,SW,219,2.0,0.0,94,0.00,,,0.00,meteohub,2013-01-12 10:12:00,
2013-01-12 05:17:00,50.2,48.6,31.02,SSW,211,0.0,3.0,94,0.00,,,0.00,meteohub,2013-01-12 10:17:00,
2013-01-12 05:22:00,50.2,48.6,31.02,SSW,211,0.0,3.0,94,0.00,,,0.00,meteohub,2013-01-12 10:22:00,
2013-01-12 05:27:00,50.2,48.6,31.02,SSW,211,0.0,3.0,94,0.00,,,0.00,meteohub,2013-01-12 10:27:00,
2013-01-12 05:32:00,50.2,48.6,31.02,SSW,211,0.0,3.0,94,0.00,,,0.00,meteohub,2013-01-12 10:32:00,
2013-01-12 05:37:00,50.2,48.6,31.02,SSW,211,0.0,0.0,94,0.00,,,0.00,meteohub,2013-01-12 10:37:00,
2013-01-12 05:42:00,50.2,48.6,31.02,SSW,211,0.0,0.0,94,0.00,,,0.00,meteohub,2013-01-12 10:42:00,
2013-01-12 05:47:00,50.2,48.6,31.02,SSW,211,0.0,0.0,94,0.00,,,0.00,meteohub,2013-01-12 10:47:00,
2013-01-12 05:52:00,50.4,48.7,31.02,SSW,211,0.0,0.0,94,0.00,,,0.00,meteohub,2013-01-12 10:52:00,
2013-01-12 05:57:00,50.4,48.9,31.02,SSW,211,0.0,0.0,95,0.00,,,0.00,meteohub,2013-01-12 10:57:00,
2013-01-12 06:02:00,50.4,48.9,31.02,SSW,211,0.0,0.0,95,0.00,,,0.00,meteohub,2013-01-12 11:02:00,
2013-01-12 06:07:00,50.5,49.1,31.02,SSW,211,0.0,0.0,95,0.00,,,0.00,meteohub,2013-01-12 11:07:00,
2013-01-12 06:12:00,50.7,49.3,31.02,SSW,211,0.0,0.0,95,0.00,,,0.00,meteohub,2013-01-12 11:12:00,
2013-01-12 06:17:00,50.7,49.3,31.02,SSW,211,0.0,0.0,95,0.00,,,0.00,meteohub,2013-01-12 11:17:00,
2013-01-12 06:22:00,50.9,49.8,31.02,WSW,241,0.0,0.0,96,0.00,,,0.00,meteohub,2013-01-12 11:22:00,
2013-01-12 06:27:00,50.9,49.8,31.02,South,189,0.0,0.0,96,0.00,,,0.00,meteohub,2013-01-12 11:27:00,
2013-01-12 06:32:00,51.1,50.0,31.02,WSW,250,0.0,0.0,96,0.00,,,0.00,meteohub,2013-01-12 11:32:00,
2013-01-12 06:37:00,51.1,50.0,31.02,SSE,166,0.0,0.0,96,0.00,,,0.00,meteohub,2013-01-12 11:37:00,
2013-01-12 06:42:00,51.1,50.0,31.02,SW,216,0.0,0.0,96,0.00,,,0.00,meteohub,2013-01-12 11:42:00,
2013-01-12 06:47:00,51.3,50.2,31.02,WSW,245,0.0,3.0,96,0.00,,,0.00,meteohub,2013-01-12 11:47:00,
2013-01-12 06:52:00,51.4,50.5,31.02,SSW,193,0.0,3.0,97,0.00,,,0.00,meteohub,2013-01-12 11:52:00,
2013-01-12 06:57:00,51.6,50.7,31.02,SSW,198,0.0,3.0,97,0.00,,,0.00,meteohub,2013-01-12 11:57:00,
2013-01-12 07:02:00,51.6,50.7,31.02,SW,227,0.0,3.0,97,0.00,,,0.00,meteohub,2013-01-12 12:02:00,
2013-01-12 07:07:00,51.8,50.9,31.02,SSW,198,0.0,3.0,97,0.00,,,0.00,meteohub,2013-01-12 12:07:00,
2013-01-12 07:12:00,52.0,51.1,31.02,SSW,209,0.0,3.0,97,0.00,,,0.00,meteohub,2013-01-12 12:12:00,
2013-01-12 07:17:00,52.0,51.1,31.02,SSW,209,0.0,3.0,97,0.00,,,0.00,meteohub,2013-01-12 12:17:00,
2013-01-12 07:22:00,52.0,51.1,31.02,West,259,0.0,3.0,97,0.00,,,0.00,meteohub,2013-01-12 12:22:00,
2013-01-12 07:27:00,52.2,51.6,31.02,West,259,0.0,0.0,98,0.00,,,0.00,meteohub,2013-01-12 12:27:00,
2013-01-12 07:32:00,52.3,51.8,31.02,SE,131,0.0,0.0,98,0.00,,,0.00,meteohub,2013-01-12 12:32:00,
2013-01-12 07:37:00,52.3,51.8,31.02,WSW,242,0.0,0.0,98,0.00,,,0.00,meteohub,2013-01-12 12:37:00,
2013-01-12 07:42:00,52.3,51.8,31.02,WSW,242,0.0,0.0,98,0.00,,,0.00,meteohub,2013-01-12 12:42:00,
2013-01-12 07:47:00,52.3,51.8,31.02,South,185,0.0,0.0,98,0.00,,,0.00,meteohub,2013-01-12 12:47:00,
2013-01-12 07:52:00,52.3,51.8,31.02,West,276,0.0,0.0,98,0.00,,,0.00,meteohub,2013-01-12 12:52:00,
2013-01-12 07:57:00,52.5,52.0,31.02,West,276,0.0,0.0,98,0.00,,,0.00,meteohub,2013-01-12 12:57:00,
2013-01-12 08:02:00,52.5,52.0,31.02,West,276,0.0,0.0,98,0.00,,,0.00,meteohub,2013-01-12 13:02:00,
2013-01-12 08:07:00,52.5,52.0,31.02,WNW,298,0.0,0.0,98,0.00,,,0.00,meteohub,2013-01-12 13:07:00,
2013-01-12 08:12:00,52.7,52.2,31.02,SW,215,0.0,0.0,98,0.00,,,0.00,meteohub,2013-01-12 13:12:00,
2013-01-12 08:17:00,52.7,52.2,31.02,SSW,213,0.0,0.0,98,0.00,,,0.00,meteohub,2013-01-12 13:17:00,
2013-01-12 08:22:00,52.9,52.3,31.02,SSW,213,0.0,0.0,98,0.00,,,0.00,meteohub,2013-01-12 13:22:00,
2013-01-12 08:27:00,52.9,52.3,31.02,SSW,213,0.0,0.0,98,0.00,,,0.00,meteohub,2013-01-12 13:27:00,
2013-01-12 08:32:00,53.1,52.5,31.02,SSW,213,0.0,0.0,98,0.00,,,0.00,meteohub,2013-01-12 13:32:00,
2013-01-12 08:37:00,53.2,52.7,31.02,SSW,213,0.0,0.0,98,0.00,,,0.00,meteohub,2013-01-12 13:37:00,
2013-01-12 08:42:00,53.4,52.9,31.02,SSW,213,0.0,0.0,98,0.00,,,0.00,meteohub,2013-01-12 13:42:00,
2013-01-12 08:47:00,53.6,53.1,31.02,SSW,213,0.0,0.0,98,0.00,,,0.00,meteohub,2013-01-12 13:47:00,
2013-01-12 08:52:00,53.8,53.2,31.02,SSW,195,0.0,0.0,98,0.00,,,0.00,meteohub,2013-01-12 13:52:00,
2013-01-12 08:57:00,54.0,53.4,31.02,WSW,243,0.0,0.0,98,0.00,,,0.00,meteohub,2013-01-12 13:57:00,
2013-01-12 09:02:00,54.1,53.6,31.02,SSW,204,0.0,0.0,98,0.00,,,0.00,meteohub,2013-01-12 14:02:00,
2013-01-12 09:07:00,54.3,53.8,31.02,SW,232,0.0,0.0,98,0.00,,,0.00,meteohub,2013-01-12 14:07:00,
2013-01-12 09:12:00,54.5,54.0,31.02,WSW,242,0.0,0.0,98,0.00,,,0.00,meteohub,2013-01-12 14:12:00,
2013-01-12 09:17:00,54.7,54.1,31.02,SSW,211,0.0,0.0,98,0.00,,,0.00,meteohub,2013-01-12 14:17:00,
2013-01-12 09:22:00,54.7,54.1,31.02,WSW,241,0.0,3.0,98,0.00,,,0.00,meteohub,2013-01-12 14:22:00,
2013-01-12 09:27:00,55.0,54.5,31.02,West,260,0.0,3.0,98,0.00,,,0.00,meteohub,2013-01-12 14:27:00,
2013-01-12 09:32:00,55.4,54.9,31.02,SW,233,0.0,3.0,98,0.00,,,0.00,meteohub,2013-01-12 14:32:00,
2013-01-12 09:37:00,55.6,55.0,31.02,SW,232,3.0,3.0,98,0.00,,,0.00,meteohub,2013-01-12 14:37:00,
2013-01-12 09:42:00,55.8,55.2,31.02,WSW,239,0.0,4.0,98,0.00,,,0.00,meteohub,2013-01-12 14:42:00,
2013-01-12 09:47:00,55.8,55.2,31.02,WSW,241,3.0,4.0,98,0.00,,,0.00,meteohub,2013-01-12 14:47:00,
2013-01-12 09:52:00,55.8,55.2,31.02,SW,218,4.0,4.0,98,0.00,,,0.00,meteohub,2013-01-12 14:52:00,
2013-01-12 09:57:00,55.8,55.2,31.02,West,261,3.0,4.0,98,0.00,,,0.00,meteohub,2013-01-12 14:57:00,
2013-01-12 10:02:00,55.9,55.4,31.02,West,269,0.0,4.0,98,0.00,,,0.00,meteohub,2013-01-12 15:02:00,
2013-01-12 10:07:00,56.1,55.6,31.02,West,261,0.0,4.0,98,0.00,,,0.00,meteohub,2013-01-12 15:07:00,
2013-01-12 10:12:00,56.1,55.6,31.02,SSW,208,0.0,3.0,98,0.00,,,0.00,meteohub,2013-01-12 15:12:00,
2013-01-12 10:17:00,56.1,55.6,31.02,SW,219,0.0,4.0,98,0.00,,,0.00,meteohub,2013-01-12 15:17:00,
2013-01-12 10:22:00,56.1,55.6,31.02,South,184,0.0,4.0,98,0.00,,,0.00,meteohub,2013-01-12 15:22:00,
2013-01-12 10:27:00,56.3,55.8,31.02,South,184,0.0,0.0,98,0.00,,,0.00,meteohub,2013-01-12 15:27:00,
2013-01-12 10:32:00,56.3,55.8,31.02,South,176,0.0,3.0,98,0.00,,,0.00,meteohub,2013-01-12 15:32:00,
2013-01-12 10:37:00,56.5,55.9,31.02,North,353,0.0,3.0,98,0.00,,,0.00,meteohub,2013-01-12 15:37:00,
2013-01-12 10:42:00,56.7,56.1,31.02,WSW,237,0.0,3.0,98,0.00,,,0.00,meteohub,2013-01-12 15:42:00,
2013-01-12 10:47:00,56.5,55.9,31.02,SW,217,0.0,2.0,98,0.00,,,0.00,meteohub,2013-01-12 15:47:00,
2013-01-12 10:52:00,56.5,55.9,31.02,SW,226,0.0,0.0,98,0.00,,,0.00,meteohub,2013-01-12 15:52:00,
2013-01-12 10:57:00,56.7,56.1,31.02,WSW,258,0.0,4.0,98,0.00,,,0.00,meteohub,2013-01-12 15:57:00,
2013-01-12 11:02:00,56.7,56.1,31.02,SSW,197,3.0,4.0,98,0.00,,,0.00,meteohub,2013-01-12 16:02:00,
2013-01-12 11:07:00,56.8,56.3,31.02,NNW,341,0.0,3.0,98,0.00,,,0.00,meteohub,2013-01-12 16:07:00,
2013-01-12 11:12:00,57.2,56.7,31.02,North,0,0.0,3.0,98,0.00,,,0.00,meteohub,2013-01-12 16:12:00,
2013-01-12 11:17:00,57.4,56.8,31.02,North,0,0.0,3.0,98,0.00,,,0.00,meteohub,2013-01-12 16:17:00,
2013-01-12 11:22:00,57.6,57.0,31.02,WSW,245,0.0,0.0,98,0.00,,,0.00,meteohub,2013-01-12 16:22:00,
2013-01-12 11:27:00,57.4,56.8,31.02,SSW,206,4.0,0.0,98,0.00,,,0.00,meteohub,2013-01-12 16:27:00,
2013-01-12 11:32:00,57.4,56.8,31.02,SW,231,0.0,4.0,98,0.00,,,0.00,meteohub,2013-01-12 16:32:00,
2013-01-12 11:38:00,57.6,57.0,31.02,WSW,239,4.0,4.0,98,0.00,,,0.00,meteohub,2013-01-12 16:38:00,
2013-01-12 11:43:00,57.6,57.0,31.02,SW,229,0.0,4.0,98,0.00,,,0.00,meteohub,2013-01-12 16:43:00,
2013-01-12 11:48:00,57.7,57.2,31.02,SW,229,0.0,4.0,98,0.00,,,0.00,meteohub,2013-01-12 16:48:00,
2013-01-12 11:53:00,58.3,57.7,31.02,WSW,252,0.0,4.0,98,0.00,,,0.00,meteohub,2013-01-12 16:53:00,
2013-01-12 11:58:00,58.5,57.9,31.02,NNW,345,0.0,4.0,98,0.00,,,0.00,meteohub,2013-01-12 16:58:00,
2013-01-12 12:03:00,58.6,58.1,31.02,North,0,0.0,2.0,98,0.00,,,0.00,meteohub,2013-01-12 17:03:00,
2013-01-12 12:08:00,58.8,58.3,31.02,WSW,246,0.0,5.0,98,0.00,,,0.00,meteohub,2013-01-12 17:08:00,
2013-01-12 12:13:00,58.8,58.3,31.02,West,271,0.0,5.0,98,0.00,,,0.00,meteohub,2013-01-12 17:13:00,
2013-01-12 12:18:00,59.0,58.5,31.02,SW,236,0.0,3.0,98,0.00,,,0.00,meteohub,2013-01-12 17:18:00,
2013-01-12 12:23:00,59.2,58.6,31.02,North,1,0.0,3.0,98,0.00,,,0.00,meteohub,2013-01-12 17:23:00,
2013-01-12 12:28:00,59.9,59.4,31.02,SW,229,0.0,3.0,98,0.00,,,0.00,meteohub,2013-01-12 17:28:00,
2013-01-12 12:34:00,61.0,60.4,31.02,North,357,0.0,3.0,98,0.00,,,0.00,meteohub,2013-01-12 17:34:00,
2013-01-12 12:39:00,61.5,61.0,31.02,SSW,207,0.0,0.0,98,0.00,,,0.00,meteohub,2013-01-12 17:39:00,
2013-01-12 12:44:00,61.9,61.3,31.02,SSW,202,3.0,4.0,98,0.00,,,0.00,meteohub,2013-01-12 17:44:00,
2013-01-12 12:49:00,63.0,62.4,31.02,West,261,0.0,4.0,98,0.00,,,0.00,meteohub,2013-01-12 17:49:00,
2013-01-12 12:54:00,64.2,63.7,31.02,SSW,200,0.0,4.0,98,0.00,,,0.00,meteohub,2013-01-12 17:54:00,
2013-01-12 12:59:00,65.3,64.4,31.02,WSW,250,0.0,4.0,97,0.00,,,0.00,meteohub,2013-01-12 17:59:00,
2013-01-12 13:04:00,66.2,63.5,31.02,SW,234,0.0,4.0,91,0.00,,,0.00,meteohub,2013-01-12 18:04:00,
2013-01-12 13:09:00,66.6,54.9,31.02,SSW,213,0.0,4.0,66,0.00,,,0.00,meteohub,2013-01-12 18:09:00,
2013-01-12 13:14:00,67.3,52.9,31.02,SSW,200,0.0,4.0,60,0.00,,,0.00,meteohub,2013-01-12 18:14:00,
2013-01-12 13:19:00,68.2,54.1,31.02,NNE,18,0.0,4.0,61,0.00,,,0.00,meteohub,2013-01-12 18:19:00,
2013-01-12 13:24:00,68.4,47.8,31.02,SW,214,0.0,4.0,48,0.00,,,0.00,meteohub,2013-01-12 18:24:00,
2013-01-12 13:29:00,69.1,48.0,31.02,SW,214,2.0,4.0,47,0.00,,,0.00,meteohub,2013-01-12 18:29:00,
2013-01-12 13:35:00,70.2,50.2,31.02,SSW,207,0.0,4.0,49,0.00,,,0.00,meteohub,2013-01-12 18:35:00,
2013-01-12 13:40:00,70.7,43.2,31.02,SW,230,0.0,4.0,37,0.00,,,0.00,meteohub,2013-01-12 18:40:00,
2013-01-12 13:45:00,71.2,46.4,31.02,West,273,0.0,4.0,41,0.00,,,0.00,meteohub,2013-01-12 18:45:00,
2013-01-12 13:50:00,71.2,45.7,31.02,WSW,252,4.0,4.0,40,0.00,,,0.00,meteohub,2013-01-12 18:50:00,
2013-01-12 13:55:00,70.5,41.5,31.02,SSW,202,0.0,4.0,35,0.00,,,0.00,meteohub,2013-01-12 18:55:00,
2013-01-12 14:00:00,70.2,41.2,31.02,SSW,196,0.0,4.0,35,0.00,,,0.00,meteohub,2013-01-12 19:00:00,
2013-01-12 14:05:00,70.2,43.3,31.02,NNW,335,0.0,4.0,38,0.00,,,0.00,meteohub,2013-01-12 19:05:00,
2013-01-12 14:10:00,69.6,42.3,31.02,WSW,241,2.0,4.0,37,0.00,,,0.00,meteohub,2013-01-12 19:10:00,
2013-01-12 14:15:00,69.4,42.8,31.02,SW,226,2.0,4.0,38,0.00,,,0.00,meteohub,2013-01-12 19:15:00,
2013-01-12 14:20:00,69.8,42.4,31.02,South,188,2.0,4.0,37,0.00,,,0.00,meteohub,2013-01-12 19:20:00,
2013-01-12 14:25:00,70.7,43.2,31.02,SW,215,0.0,4.0,37,0.00,,,0.00,meteohub,2013-01-12 19:25:00,
2013-01-12 14:30:00,71.4,43.2,31.02,WSW,249,2.0,4.0,36,0.00,,,0.00,meteohub,2013-01-12 19:30:00,
2013-01-12 14:36:00,71.4,43.2,31.02,West,281,0.0,4.0,36,0.00,,,0.00,meteohub,2013-01-12 19:36:00,
2013-01-12 14:41:00,72.0,43.5,31.02,SSW,209,2.0,4.0,36,0.00,,,0.00,meteohub,2013-01-12 19:41:00,
2013-01-12 14:46:00,72.3,41.5,31.02,East,99,2.0,4.0,33,0.00,,,0.00,meteohub,2013-01-12 19:46:00,
2013-01-12 14:51:00,72.3,40.8,31.02,SSW,202,0.0,5.0,32,0.00,,,0.00,meteohub,2013-01-12 19:51:00,
2013-01-12 14:56:00,72.0,41.4,31.02,SSW,212,0.0,5.0,33,0.00,,,0.00,meteohub,2013-01-12 19:56:00,
2013-01-12 15:01:00,71.8,41.9,31.02,NW,308,0.0,4.0,34,0.00,,,0.00,meteohub,2013-01-12 20:01:00,
2013-01-12 15:06:00,71.6,41.0,31.02,North,9,0.0,4.0,33,0.00,,,0.00,meteohub,2013-01-12 20:06:00,
2013-01-12 15:11:00,71.6,41.0,31.02,WSW,243,0.0,0.0,33,0.00,,,0.00,meteohub,2013-01-12 20:11:00,
2013-01-12 15:16:00,71.8,41.2,31.02,SW,228,0.0,0.0,33,0.00,,,0.00,meteohub,2013-01-12 20:16:00,
2013-01-12 15:21:00,71.4,40.1,31.02,SW,215,0.0,3.0,32,0.00,,,0.00,meteohub,2013-01-12 20:21:00,
2013-01-12 15:26:00,71.1,40.5,31.02,NE,45,0.0,3.0,33,0.00,,,0.00,meteohub,2013-01-12 20:26:00,
2013-01-12 15:32:00,71.4,40.8,31.02,SW,234,2.0,3.0,33,0.00,,,0.00,meteohub,2013-01-12 20:32:00,
2013-01-12 15:37:00,71.4,40.8,31.02,SW,224,0.0,4.0,33,0.00,,,0.00,meteohub,2013-01-12 20:37:00,
2013-01-12 15:42:00,71.4,40.8,31.02,SSW,212,0.0,4.0,33,0.00,,,0.00,meteohub,2013-01-12 20:42:00,
2013-01-12 15:47:00,71.2,40.6,31.02,SSW,212,0.0,4.0,33,0.00,,,0.00,meteohub,2013-01-12 20:47:00,
2013-01-12 15:52:00,71.4,40.8,31.02,SSW,212,0.0,2.0,33,0.00,,,0.00,meteohub,2013-01-12 20:52:00,
2013-01-12 15:57:00,71.6,41.0,31.02,SSW,212,0.0,0.0,33,0.00,,,0.00,meteohub,2013-01-12 20:57:00,
2013-01-12 16:02:00,71.6,41.0,31.02,SSW,212,0.0,0.0,33,0.00,,,0.00,meteohub,2013-01-12 21:02:00,
2013-01-12 16:07:00,71.4,40.8,31.02,SSW,212,0.0,0.0,33,0.00,,,0.00,meteohub,2013-01-12 21:07:00,
2013-01-12 16:12:00,71.2,40.6,31.02,SSW,212,0.0,0.0,33,0.00,,,0.00,meteohub,2013-01-12 21:12:00,
2013-01-12 16:17:00,71.1,40.5,31.02,SSW,212,0.0,0.0,33,0.00,,,0.00,meteohub,2013-01-12 21:17:00,
2013-01-12 16:22:00,70.9,40.3,31.02,SSW,212,0.0,0.0,33,0.00,,,0.00,meteohub,2013-01-12 21:22:00,
2013-01-12 16:27:00,70.7,40.1,31.02,SSW,212,0.0,0.0,33,0.00,,,0.00,meteohub,2013-01-12 21:27:00,
2013-01-12 16:32:00,70.3,39.9,31.02,SSW,212,0.0,0.0,33,0.00,,,0.00,meteohub,2013-01-12 21:32:00,
2013-01-12 16:38:00,69.8,39.4,31.02,SSW,212,0.0,0.0,33,0.00,,,0.00,meteohub,2013-01-12 21:38:00,
2013-01-12 16:43:00,69.4,39.9,31.02,SSW,212,0.0,0.0,34,0.00,,,0.00,meteohub,2013-01-12 21:43:00,
2013-01-12 16:48:00,68.9,39.4,31.02,SSW,212,0.0,0.0,34,0.00,,,0.00,meteohub,2013-01-12 21:48:00,
2013-01-12 16:53:00,68.4,39.6,31.02,SSW,212,0.0,0.0,35,0.00,,,0.00,meteohub,2013-01-12 21:53:00,
2013-01-12 16:58:00,68.0,39.4,31.02,SSW,212,0.0,0.0,35,0.00,,,0.00,meteohub,2013-01-12 21:58:00,
2013-01-12 17:03:00,67.6,39.7,31.02,SSW,212,0.0,0.0,36,0.00,,,0.00,meteohub,2013-01-12 22:03:00,
2013-01-12 17:08:00,67.1,39.9,31.02,SSW,212,0.0,0.0,37,0.00,,,0.00,meteohub,2013-01-12 22:08:00,
2013-01-12 17:13:00,66.7,39.6,31.02,SSW,212,0.0,0.0,37,0.00,,,0.00,meteohub,2013-01-12 22:13:00,
2013-01-12 17:18:00,66.4,39.9,31.02,SSW,212,0.0,0.0,38,0.00,,,0.00,meteohub,2013-01-12 22:18:00,
2013-01-12 17:24:00,66.0,40.3,31.02,SSW,212,0.0,0.0,39,0.00,,,0.00,meteohub,2013-01-12 22:24:00,
2013-01-12 17:29:00,65.7,40.1,31.02,SSW,212,0.0,0.0,39,0.00,,,0.00,meteohub,2013-01-12 22:29:00,
2013-01-12 17:34:00,65.3,40.3,31.02,SSW,212,0.0,0.0,40,0.00,,,0.00,meteohub,2013-01-12 22:34:00,
2013-01-12 17:39:00,64.8,40.5,31.02,SSW,212,0.0,0.0,41,0.00,,,0.00,meteohub,2013-01-12 22:39:00,
2013-01-12 17:44:00,64.4,40.1,31.02,SSW,212,0.0,0.0,41,0.00,,,0.00,meteohub,2013-01-12 22:44:00,
2013-01-12 17:49:00,64.0,40.5,31.02,SSW,212,0.0,0.0,42,0.00,,,0.00,meteohub,2013-01-12 22:49:00,
2013-01-12 17:54:00,63.5,40.6,31.02,SSW,212,0.0,0.0,43,0.00,,,0.00,meteohub,2013-01-12 22:54:00,
2013-01-12 18:00:00,63.1,40.8,31.02,SSW,212,0.0,0.0,44,0.00,,,0.00,meteohub,2013-01-12 23:00:00,
2013-01-12 18:05:00,63.0,40.6,31.02,SSW,212,0.0,0.0,44,0.00,,,0.00,meteohub,2013-01-12 23:05:00,
2013-01-12 18:10:00,62.6,40.5,31.02,SSW,212,0.0,0.0,44,0.00,,,0.00,meteohub,2013-01-12 23:10:00,
2013-01-12 18:15:00,62.2,40.6,31.02,SSW,212,0.0,0.0,45,0.00,,,0.00,meteohub,2013-01-12 23:15:00,
2013-01-12 18:20:00,61.9,40.8,31.02,SSW,212,0.0,0.0,46,0.00,,,0.00,meteohub,2013-01-12 23:20:00,
2013-01-12 18:25:00,61.7,40.6,31.02,SSW,212,0.0,0.0,46,0.00,,,0.00,meteohub,2013-01-12 23:25:00,
2013-01-12 18:30:00,61.3,40.5,31.02,SSW,212,0.0,0.0,46,0.00,,,0.00,meteohub,2013-01-12 23:30:00,
2013-01-12 18:35:00,61.2,40.8,31.02,SSW,212,0.0,0.0,47,0.00,,,0.00,meteohub,2013-01-12 23:35:00,
2013-01-12 18:40:00,60.8,40.5,31.02,SSW,212,0.0,0.0,47,0.00,,,0.00,meteohub,2013-01-12 23:40:00,
2013-01-12 18:45:00,60.4,40.6,31.02,SSW,212,0.0,0.0,48,0.00,,,0.00,meteohub,2013-01-12 23:45:00,
2013-01-12 18:51:00,60.3,40.5,31.02,SSW,212,0.0,0.0,48,0.00,,,0.00,meteohub,2013-01-12 23:51:00,
2013-01-12 18:56:00,60.1,40.8,31.02,SSW,212,0.0,0.0,49,0.00,,,0.00,meteohub,2013-01-12 23:56:00,
2013-01-12 19:01:00,59.9,40.6,31.02,SSW,212,0.0,0.0,49,0.00,,,0.00,meteohub,2013-01-13 00:01:00,
2013-01-12 19:06:00,59.5,40.8,31.02,SSW,212,0.0,0.0,50,0.00,,,0.00,meteohub,2013-01-13 00:06:00,
2013-01-12 19:11:00,59.4,40.6,31.02,SSW,212,0.0,0.0,50,0.00,,,0.00,meteohub,2013-01-13 00:11:00,
2013-01-12 19:16:00,59.2,41.0,31.02,SSW,212,0.0,0.0,51,0.00,,,0.00,meteohub,2013-01-13 00:16:00,
2013-01-12 19:21:00,59.0,40.8,31.02,SSW,212,0.0,0.0,51,0.00,,,0.00,meteohub,2013-01-13 00:21:00,
2013-01-12 19:26:00,58.8,41.2,31.02,SSW,212,0.0,0.0,52,0.00,,,0.00,meteohub,2013-01-13 00:26:00,
2013-01-12 19:31:00,58.6,41.5,31.02,SSW,212,0.0,0.0,53,0.00,,,0.00,meteohub,2013-01-13 00:31:00,
2013-01-12 19:37:00,58.5,41.4,31.02,SSW,212,0.0,0.0,53,0.00,,,0.00,meteohub,2013-01-13 00:37:00,
2013-01-12 19:42:00,58.5,41.9,31.02,SSW,212,0.0,0.0,54,0.00,,,0.00,meteohub,2013-01-13 00:42:00,
2013-01-12 19:47:00,58.3,41.7,31.02,SSW,212,0.0,0.0,54,0.00,,,0.00,meteohub,2013-01-13 00:47:00,
2013-01-12 19:52:00,58.1,42.1,31.02,SSW,212,0.0,0.0,55,0.00,,,0.00,meteohub,2013-01-13 00:52:00,
2013-01-12 19:57:00,58.1,42.1,31.02,SSW,212,0.0,0.0,55,0.00,,,0.00,meteohub,2013-01-13 00:57:00,
2013-01-12 20:02:00,58.1,42.4,31.02,SSW,212,0.0,0.0,56,0.00,,,0.00,meteohub,2013-01-13 01:02:00,
2013-01-12 20:07:00,57.9,42.3,31.02,SSW,212,0.0,0.0,56,0.00,,,0.00,meteohub,2013-01-13 01:07:00,
2013-01-12 20:12:00,57.9,42.8,31.02,SSW,212,0.0,0.0,57,0.00,,,0.00,meteohub,2013-01-13 01:12:00,
2013-01-12 20:17:00,57.9,42.8,31.02,SSW,212,0.0,0.0,57,0.00,,,0.00,meteohub,2013-01-13 01:17:00,
2013-01-12 20:22:00,57.9,43.2,31.02,SSW,212,0.0,0.0,58,0.00,,,0.00,meteohub,2013-01-13 01:22:00,
2013-01-12 20:27:00,57.9,43.2,31.02,SSW,212,0.0,0.0,58,0.00,,,0.00,meteohub,2013-01-13 01:27:00,
2013-01-12 20:32:00,57.7,43.5,31.02,SSW,212,0.0,0.0,59,0.00,,,0.00,meteohub,2013-01-13 01:32:00,
2013-01-12 20:37:00,57.7,43.5,31.02,SSW,212,0.0,0.0,59,0.00,,,0.00,meteohub,2013-01-13 01:37:00,
2013-01-12 20:42:00,57.9,44.1,31.02,SSW,212,0.0,0.0,60,0.00,,,0.00,meteohub,2013-01-13 01:42:00,
2013-01-12 20:47:00,57.9,44.1,31.02,SSW,212,0.0,0.0,60,0.00,,,0.00,meteohub,2013-01-13 01:47:00,
2013-01-12 20:52:00,57.9,44.6,31.02,SSW,212,0.0,0.0,61,0.00,,,0.00,meteohub,2013-01-13 01:52:00,
2013-01-12 20:57:00,58.1,45.1,31.02,SSW,212,0.0,0.0,62,0.00,,,0.00,meteohub,2013-01-13 01:57:00,
2013-01-12 21:02:00,58.3,45.3,31.02,SSW,212,0.0,0.0,62,0.00,,,0.00,meteohub,2013-01-13 02:02:00,
2013-01-12 21:07:00,58.5,45.9,31.02,SSW,212,0.0,0.0,63,0.00,,,0.00,meteohub,2013-01-13 02:07:00,
2013-01-12 21:12:00,58.8,46.6,31.02,SSW,212,0.0,0.0,64,0.00,,,0.00,meteohub,2013-01-13 02:12:00,
2013-01-12 21:17:00,59.2,47.5,31.02,SSW,197,0.0,0.0,65,0.00,,,0.00,meteohub,2013-01-13 02:17:00,
2013-01-12 21:22:00,59.7,48.4,31.02,SW,235,0.0,4.0,66,0.00,,,0.00,meteohub,2013-01-13 02:22:00,
2013-01-12 21:27:00,60.1,49.1,31.02,South,188,0.0,4.0,67,0.00,,,0.00,meteohub,2013-01-13 02:27:00,
2013-01-12 21:32:00,60.3,49.6,31.02,SW,216,0.0,0.0,68,0.00,,,0.00,meteohub,2013-01-13 02:32:00,
2013-01-12 21:37:00,60.4,49.8,31.02,SSW,198,0.0,0.0,68,0.00,,,0.00,meteohub,2013-01-13 02:37:00,
2013-01-12 21:42:00,60.4,50.5,31.02,SSE,162,0.0,0.0,70,0.00,,,0.00,meteohub,2013-01-13 02:42:00,
2013-01-12 21:47:00,60.6,50.7,31.02,SE,145,0.0,3.0,70,0.00,,,0.00,meteohub,2013-01-13 02:47:00,
2013-01-12 21:52:00,60.4,51.1,31.02,SSW,213,0.0,4.0,71,0.00,,,0.00,meteohub,2013-01-13 02:52:00,
2013-01-12 21:57:00,60.6,51.6,31.02,SSE,163,0.0,4.0,72,0.00,,,0.00,meteohub,2013-01-13 02:57:00,
2013-01-12 22:03:00,60.6,51.6,31.02,SSE,163,0.0,4.0,72,0.00,,,0.00,meteohub,2013-01-13 03:03:00,
2013-01-12 22:08:00,60.4,51.4,31.02,SSE,163,0.0,3.0,72,0.00,,,0.00,meteohub,2013-01-13 03:08:00,
2013-01-12 22:13:00,60.3,51.6,31.02,SSE,166,0.0,3.0,73,0.00,,,0.00,meteohub,2013-01-13 03:13:00,
2013-01-12 22:18:00,60.3,52.0,31.02,SW,227,0.0,3.0,74,0.00,,,0.00,meteohub,2013-01-13 03:18:00,
2013-01-12 22:23:00,60.3,52.0,31.02,SSW,207,0.0,3.0,74,0.00,,,0.00,meteohub,2013-01-13 03:23:00,
2013-01-12 22:28:00,60.3,52.3,31.02,SE,135,0.0,3.0,75,0.00,,,0.00,meteohub,2013-01-13 03:28:00,
2013-01-12 22:33:00,60.1,52.2,31.02,East,99,0.0,0.0,75,0.00,,,0.00,meteohub,2013-01-13 03:33:00,
2013-01-12 22:38:00,59.9,52.0,31.02,East,99,0.0,0.0,75,0.00,,,0.00,meteohub,2013-01-13 03:38:00,
2013-01-12 22:43:00,59.9,52.3,31.02,East,99,0.0,0.0,76,0.00,,,0.00,meteohub,2013-01-13 03:43:00,
2013-01-12 22:49:00,59.7,52.2,31.02,East,99,0.0,0.0,76,0.00,,,0.00,meteohub,2013-01-13 03:49:00,
2013-01-12 22:54:00,59.7,52.5,31.02,SSW,210,0.0,0.0,77,0.00,,,0.00,meteohub,2013-01-13 03:54:00,
2013-01-12 22:59:00,59.7,52.9,31.02,South,173,0.0,0.0,78,0.00,,,0.00,meteohub,2013-01-13 03:59:00,
2013-01-12 23:04:00,59.7,52.9,31.02,South,185,0.0,0.0,78,0.00,,,0.00,meteohub,2013-01-13 04:04:00,
2013-01-12 23:09:00,59.5,52.7,31.02,South,185,0.0,0.0,78,0.00,,,0.00,meteohub,2013-01-13 04:09:00,
2013-01-12 23:14:00,59.5,52.7,31.02,SSW,210,0.0,0.0,78,0.00,,,0.00,meteohub,2013-01-13 04:14:00,
2013-01-12 23:19:00,59.5,53.1,31.02,SSW,197,0.0,0.0,79,0.00,,,0.00,meteohub,2013-01-13 04:19:00,
2013-01-12 23:24:00,59.5,53.1,31.02,SW,225,0.0,0.0,79,0.00,,,0.00,meteohub,2013-01-13 04:24:00,
2013-01-12 23:29:00,59.5,53.1,31.02,South,177,0.0,0.0,79,0.00,,,0.00,meteohub,2013-01-13 04:29:00,
2013-01-12 23:35:00,59.5,53.1,31.02,South,177,0.0,2.0,79,0.00,,,0.00,meteohub,2013-01-13 04:35:00,
2013-01-12 23:40:00,59.4,52.9,31.02,South,179,0.0,2.0,79,0.00,,,0.00,meteohub,2013-01-13 04:40:00,
2013-01-12 23:45:00,59.4,53.2,31.02,SSE,155,0.0,0.0,80,0.00,,,0.00,meteohub,2013-01-13 04:45:00,
2013-01-12 23:50:00,59.4,53.2,31.02,SW,226,0.0,3.0,80,0.00,,,0.00,meteohub,2013-01-13 04:50:00,
2013-01-12 23:55:00,59.4,53.6,31.02,SSW,198,0.0,3.0,81,0.00,,,0.00,meteohub,2013-01-13 04:55:00,